Погода Рио Каскана 2 недели

Минас-Жерайс, Бразилия

23 июля-04 августа
  • 23июля
    Сегодня
    +11°
    +29°
    Ясно и безоблачно
    ВремяПогодаТемператураВлажностьДавлениеВетер, м/сВероятность осадков
    00:00Ясно и безоблачно+13°C78 %732 мм1.4 м/с5 %
    03:00Ясно и безоблачно+13°C83 %732 мм1.6 м/с5 %
    06:00Ясно и безоблачно+11°C87 %732 мм1.6 м/с5 %
    09:00Ясно и безоблачно+19°C56 %735 мм0.7 м/с5 %
    12:00Ясно и безоблачно+26°C41 %734 мм1.4 м/с5 %
    15:00Ясно и безоблачно+28°C37 %733 мм1.0 м/с5 %
    18:00Ясно и безоблачно+21°C50 %732 мм1.9 м/с5 %
    21:00Ясно и безоблачно+18°C63 %733 мм1.9 м/с5 %
  • 24июля
    Среда
    +12°
    +28°
    Ясно и безоблачно
    ВремяПогодаТемператураВлажностьДавлениеВетер, м/сВероятность осадков
    00:00Ясно и безоблачно+14°C76 %733 мм1.1 м/с5 %
    03:00Практически безоблачно+13°C84 %733 мм0.9 м/с5 %
    06:00Ясно и безоблачно+12°C90 %734 мм0.9 м/с5 %
    09:00Ясно и безоблачно+19°C67 %736 мм1.4 м/с5 %
    12:00Ясно и безоблачно+25°C47 %735 мм1.1 м/с3 %
    15:00Ясно и безоблачно+27°C38 %733 мм0.9 м/с5 %
    18:00Ясно и безоблачно+20°C53 %733 мм1.6 м/с5 %
    21:00Практически безоблачно+17°C68 %733 мм1.3 м/с5 %
  • 25июля
    Четверг
    +11°
    +28°
    Ясно и безоблачно
    ВремяПогодаТемператураВлажностьДавлениеВетер, м/сВероятность осадков
    00:00Ясно и безоблачно+13°C77 %733 мм1.3 м/с5 %
    03:00Облачно с прояснениями+13°C78 %733 мм1.4 м/с5 %
    06:00Облачно с прояснениями+12°C91 %733 мм1.3 м/с5 %
    09:00Ясно и безоблачно+19°C67 %735 мм2.4 м/с5 %
    12:00Облачно с прояснениями+25°C43 %733 мм3.0 м/с5 %
    15:00Ясно и безоблачно+27°C37 %731 мм2.4 м/с5 %
    18:00Ясно и безоблачно+19°C50 %731 мм2.3 м/с5 %
    21:00Ясно и безоблачно+17°C56 %731 мм1.8 м/с5 %
  • 26июля
    Пятница
    +11°
    +29°
    Ясно и безоблачно
    ВремяПогодаТемператураВлажностьДавлениеВетер, м/сВероятность осадков
    00:00Ясно и безоблачно+14°C68 %731 мм1.4 м/с5 %
    03:00Ясно и безоблачно+12°C80 %730 мм1.2 м/с5 %
    06:00Ясно и безоблачно+12°C79 %731 мм1.2 м/с5 %
    09:00Ясно и безоблачно+19°C55 %733 мм1.3 м/с5 %
    12:00Ясно и безоблачно+26°C39 %733 мм2.6 м/с5 %
    15:00Ясно и безоблачно+29°C30 %731 мм1.5 м/с5 %
    18:00Ясно и безоблачно+23°C34 %731 мм1.7 м/с5 %
    21:00Небольшая облачность+17°C56 %731 мм1.8 м/с5 %
Мы используем cookies
Соглашаюсь